Time;durP1;ratioP1;P1;durP2;ratioP2;P2;SDS_P1;SDS_P2;PMS_P1;PMS_P2;Temp;Humidity;BMP_temperature;BMP_pressure;BME280_temperature;BME280_humidity;BME280_pressure;Samples;Min_cycle;Max_cycle;Signal;HPM_P1;HPM_P2
2021/12/08 00:00:55;;;;;;;17.13;4.35;;;3.10;99.90;;;;;;5011376;28;20057;-68
2021/12/08 00:03:23;;;;;;;14.05;4.70;;;3.10;99.90;;;;;;4979723;28;259040;-68
2021/12/08 00:05:50;;;;;;;15.23;4.63;;;3.10;99.90;;;;;;5018736;28;20073;-69
2021/12/08 00:08:19;;;;;;;14.88;4.25;;;3.10;99.90;;;;;;5031299;28;257772;-69
2021/12/08 00:13:32;;;;;;;14.55;4.53;;;3.20;99.90;;;;;;5009286;28;269943;-69
2021/12/08 00:16:06;;;;;;;14.82;4.68;;;3.20;99.90;;;;;;4998388;28;20061;-69
2021/12/08 00:18:34;;;;;;;18.45;4.65;;;3.20;99.90;;;;;;4978910;28;255263;-70
2021/12/08 00:21:06;;;;;;;13.10;4.60;;;3.20;99.90;;;;;;5003611;28;20506;-69
2021/12/08 00:23:32;;;;;;;21.95;5.50;;;3.20;99.90;;;;;;4996284;28;272840;-70
2021/12/08 00:25:58;;;;;;;19.15;5.15;;;3.20;99.90;;;;;;5018432;28;20045;-70
2021/12/08 00:28:25;;;;;;;16.40;4.40;;;3.20;99.90;;;;;;4993763;28;260119;-70
2021/12/08 00:30:54;;;;;;;12.95;4.43;;;3.20;99.90;;;;;;5020597;28;20053;-70
2021/12/08 00:33:21;;;;;;;13.40;4.50;;;3.20;99.90;;;;;;4993507;28;277231;-70
2021/12/08 00:35:50;;;;;;;13.95;4.45;;;3.20;99.90;;;;;;4996713;28;20492;-69
2021/12/08 00:38:18;;;;;;;15.48;4.95;;;3.20;99.90;;;;;;4991800;28;272121;-70
2021/12/08 00:40:45;;;;;;;15.65;5.22;;;3.20;99.90;;;;;;5027384;28;20422;-70
2021/12/08 00:43:12;;;;;;;15.43;4.88;;;3.30;99.90;;;;;;5009395;28;20050;-70
2021/12/08 00:45:38;;;;;;;14.75;4.97;;;3.20;99.90;;;;;;5006968;28;148151;-69
2021/12/08 00:48:05;;;;;;;13.48;4.50;;;3.30;99.90;;;;;;5010649;28;20049;-69
2021/12/08 00:50:34;;;;;;;17.08;4.68;;;3.30;99.90;;;;;;5018865;28;262917;-69
2021/12/08 00:53:00;;;;;;;16.83;5.28;;;3.30;99.90;;;;;;5010001;28;20060;-69
2021/12/08 00:55:28;;;;;;;13.80;5.13;;;3.30;99.90;;;;;;5011552;28;202201;-69
2021/12/08 00:57:54;;;;;;;15.45;5.13;;;3.30;99.90;;;;;;5009902;28;20058;-70
2021/12/08 01:00:25;;;;;;;15.75;5.22;;;3.30;99.90;;;;;;5005655;28;251626;-69
2021/12/08 01:02:51;;;;;;;15.15;5.32;;;3.40;99.90;;;;;;5010460;28;20041;-69
2021/12/08 01:05:24;;;;;;;18.05;5.45;;;3.30;99.90;;;;;;4990408;28;168876;-69
2021/12/08 01:08:49;;;;;;;14.82;5.07;;;3.30;99.90;;;;;;5016501;22;20065;-87
2021/12/08 01:18:54;;;;;;;18.05;5.40;;;3.40;99.90;;;;;;4950903;22;263086;-68
2021/12/08 01:21:20;;;;;;;15.48;5.95;;;3.40;99.90;;;;;;5019498;28;20060;-68
2021/12/08 01:23:47;;;;;;;14.93;5.18;;;3.40;99.90;;;;;;5007299;28;200403;-69
2021/12/08 01:26:13;;;;;;;13.18;5.65;;;3.40;99.90;;;;;;5017942;28;20045;-70
2021/12/08 01:28:40;;;;;;;19.65;6.00;;;3.40;99.90;;;;;;5003137;28;272890;-69
2021/12/08 01:31:06;;;;;;;18.20;6.20;;;3.40;99.90;;;;;;5038812;28;20041;-68
2021/12/08 01:33:34;;;;;;;14.93;5.30;;;3.40;99.90;;;;;;5018487;28;256434;-69
2021/12/08 01:36:04;;;;;;;17.42;6.03;;;3.40;99.90;;;;;;5021264;28;20410;-69
2021/12/08 01:38:32;;;;;;;13.73;5.87;;;3.50;99.90;;;;;;5000960;28;259752;-69
2021/12/08 01:40:58;;;;;;;16.10;5.82;;;3.50;99.90;;;;;;5020219;28;20502;-69
2021/12/08 01:43:29;;;;;;;14.80;6.07;;;3.50;99.90;;;;;;5006174;28;151879;-69
2021/12/08 01:46:04;;;;;;;15.30;5.80;;;3.50;99.90;;;;;;5038866;28;20169;-69
2021/12/08 01:48:33;;;;;;;13.18;4.93;;;3.50;99.90;;;;;;5022663;28;271663;-69
2021/12/08 01:51:11;;;;;;;16.58;5.70;;;3.50;99.90;;;;;;5051667;28;20451;-69
2021/12/08 01:53:39;;;;;;;13.98;5.60;;;3.50;99.90;;;;;;5024367;28;271960;-69
2021/12/08 01:56:05;;;;;;;15.50;5.65;;;3.50;99.90;;;;;;5040982;28;20099;-68
2021/12/08 01:58:32;;;;;;;19.63;5.97;;;3.60;99.90;;;;;;5023110;28;269506;-70
2021/12/08 02:01:03;;;;;;;14.07;6.43;;;3.60;99.90;;;;;;5049890;28;20045;-69
2021/12/08 02:03:31;;;;;;;17.25;5.90;;;3.60;99.90;;;;;;5006361;28;273702;-69
2021/12/08 02:05:57;;;;;;;17.85;6.68;;;3.60;99.90;;;;;;5051305;28;20401;-69
2021/12/08 02:08:24;;;;;;;15.38;5.95;;;3.60;99.90;;;;;;5021871;28;269189;-68
2021/12/08 02:10:51;;;;;;;16.40;5.97;;;3.60;99.90;;;;;;5053908;28;20061;-69
2021/12/08 02:13:17;;;;;;;13.10;5.50;;;3.60;99.90;;;;;;5027150;28;214801;-69
2021/12/08 02:15:44;;;;;;;16.17;5.85;;;3.60;99.90;;;;;;5053928;28;20041;-69
2021/12/08 02:18:14;;;;;;;15.50;5.75;;;3.60;99.90;;;;;;5041271;28;20502;-69
2021/12/08 02:20:43;;;;;;;14.63;5.57;;;3.70;99.90;;;;;;5042993;28;20835;-69
2021/12/08 02:23:10;;;;;;;17.08;6.30;;;3.70;99.90;;;;;;5037459;28;20379;-69
2021/12/08 02:25:36;;;;;;;16.42;6.18;;;3.60;99.90;;;;;;5037596;28;212067;-69
2021/12/08 02:28:04;;;;;;;15.07;5.60;;;3.70;99.90;;;;;;5038858;28;20068;-69
2021/12/08 02:30:40;;;;;;;17.10;5.82;;;3.70;99.90;;;;;;5035947;28;276612;-70
2021/12/08 02:49:35;;;;;;;14.05;6.57;;;3.70;99.90;;;;;;5031585;28;278793;-69
2021/12/08 02:52:03;;;;;;;15.02;6.43;;;3.70;99.90;;;;;;5043673;28;20064;-69
2021/12/08 02:54:38;;;;;;;15.13;6.30;;;3.70;99.90;;;;;;5019317;28;276610;-69
2021/12/08 02:57:05;;;;;;;20.48;6.93;;;3.80;99.90;;;;;;5040934;28;20053;-69
2021/12/08 02:59:32;;;;;;;15.38;7.03;;;3.80;99.90;;;;;;5033184;28;180482;-69
2021/12/08 03:01:59;;;;;;;17.20;8.07;;;3.80;99.90;;;;;;5043738;28;20051;-69
2021/12/08 03:04:25;;;;;;;15.02;7.28;;;3.80;99.90;;;;;;5015926;28;269539;-68
2021/12/08 03:06:52;;;;;;;15.82;7.15;;;3.80;99.90;;;;;;5042215;28;20063;-69
2021/12/08 03:09:18;;;;;;;16.27;7.43;;;3.80;99.90;;;;;;5027215;28;252616;-69
2021/12/08 03:11:46;;;;;;;15.32;7.25;;;3.80;99.90;;;;;;5045104;28;20056;-70
2021/12/08 03:14:14;;;;;;;15.60;8.05;;;3.80;99.90;;;;;;5017113;28;245972;-69
2021/12/08 03:16:45;;;;;;;12.32;6.50;;;3.80;99.90;;;;;;5017830;28;21424;-70
2021/12/08 03:19:12;;;;;;;19.13;8.27;;;3.80;99.90;;;;;;5014255;28;275508;-68
2021/12/08 03:21:38;;;;;;;19.63;8.75;;;3.90;99.90;;;;;;5047907;28;20040;-69
2021/12/08 03:24:31;;;;;;;14.75;8.15;;;3.90;99.90;;;;;;5025884;28;213304;-69
2021/12/08 03:29:38;;;;;;;18.75;9.68;;;3.90;99.90;;;;;;5028486;28;268055;-69
2021/12/08 03:32:10;;;;;;;16.85;9.23;;;3.90;99.90;;;;;;5039365;28;20084;-69
2021/12/08 03:34:40;;;;;;;16.90;9.23;;;4.00;99.90;;;;;;5043026;28;98637;-69
2021/12/08 03:37:08;;;;;;;21.13;9.40;;;4.00;99.90;;;;;;5041511;28;20053;-69
2021/12/08 03:39:35;;;;;;;17.02;8.75;;;4.00;99.90;;;;;;5030464;28;263391;-69
2021/12/08 03:42:03;;;;;;;19.40;8.93;;;4.00;99.90;;;;;;5043103;28;20383;-68
2021/12/08 03:44:29;;;;;;;18.80;9.52;;;4.00;99.90;;;;;;5023920;28;159496;-68
2021/12/08 03:47:02;;;;;;;18.65;9.40;;;4.10;99.90;;;;;;5042927;28;20052;-68
2021/12/08 03:49:30;;;;;;;19.98;9.88;;;4.10;99.90;;;;;;5029805;28;62603;-69
2021/12/08 03:52:02;;;;;;;17.73;9.70;;;4.10;99.90;;;;;;5041399;28;20056;-68
2021/12/08 03:54:28;;;;;;;16.60;9.20;;;4.10;99.90;;;;;;5029391;28;236045;-69
2021/12/08 03:56:55;;;;;;;20.23;9.68;;;4.20;99.90;;;;;;5036442;28;20044;-69
2021/12/08 03:59:21;;;;;;;17.73;9.55;;;4.20;99.90;;;;;;5028608;28;253430;-68
2021/12/08 04:01:47;;;;;;;20.23;10.18;;;4.20;99.90;;;;;;5038437;28;20057;-69
2021/12/08 04:04:14;;;;;;;21.88;10.50;;;4.20;99.90;;;;;;5009674;28;265410;-68
2021/12/08 04:09:24;;;;;;;16.75;10.35;;;4.20;99.90;;;;;;5018686;28;288134;-69
2021/12/08 04:11:50;;;;;;;19.65;10.75;;;4.20;99.90;;;;;;5035123;28;20506;-68
2021/12/08 04:14:19;;;;;;;17.50;10.98;;;4.30;99.90;;;;;;5026078;28;269541;-69
2021/12/08 04:17:06;;;;;;;18.73;10.52;;;4.30;99.90;;;;;;5045879;28;20418;-69
2021/12/08 04:19:32;;;;;;;18.35;11.48;;;4.30;99.90;;;;;;5028157;28;257797;-69
2021/12/08 04:22:04;;;;;;;19.00;12.32;;;4.30;99.90;;;;;;5040931;28;20056;-68
2021/12/08 04:24:30;;;;;;;21.88;12.90;;;4.30;99.90;;;;;;5009579;28;252249;-68
2021/12/08 04:27:02;;;;;;;22.38;12.73;;;4.40;99.90;;;;;;5034898;28;20414;-69
2021/12/08 04:29:32;;;;;;;21.88;12.30;;;4.40;99.90;;;;;;5033925;28;126637;-69
2021/12/08 04:31:59;;;;;;;21.50;13.15;;;4.40;99.90;;;;;;5042434;28;20427;-68
2021/12/08 04:34:33;;;;;;;24.23;13.85;;;4.50;99.90;;;;;;5017819;28;252321;-69
2021/12/08 04:37:06;;;;;;;21.98;13.50;;;4.50;99.90;;;;;;5027890;28;20053;-69
2021/12/08 04:39:48;;;;;;;25.17;14.32;;;4.50;99.90;;;;;;5029728;28;265064;-68
2021/12/08 04:42:20;;;;;;;22.60;13.35;;;4.60;99.90;;;;;;5035470;28;20053;-69
2021/12/08 04:44:53;;;;;;;21.00;12.65;;;4.60;99.90;;;;;;5033629;28;270349;-71
2021/12/08 05:04:02;;;;;;;19.63;12.43;;;4.70;99.90;;;;;;5013069;28;261919;-69
2021/12/08 05:06:46;;;;;;;18.48;12.70;;;4.80;99.90;;;;;;5047108;28;20520;-69
2021/12/08 05:09:24;;;;;;;20.10;12.27;;;4.80;99.90;;;;;;5024648;28;258034;-69
2021/12/08 05:11:54;;;;;;;21.20;12.40;;;4.80;99.90;;;;;;5042202;28;20053;-68
2021/12/08 05:14:27;;;;;;;19.40;11.75;;;4.80;99.90;;;;;;5022323;28;240344;-69
2021/12/08 05:16:59;;;;;;;18.25;11.52;;;4.90;99.90;;;;;;5045508;28;20517;-68
2021/12/08 05:19:28;;;;;;;17.27;11.70;;;4.90;99.90;;;;;;5010968;28;170009;-68
2021/12/08 05:22:03;;;;;;;23.08;11.68;;;4.90;99.90;;;;;;5042891;28;20057;-69
2021/12/08 05:24:34;;;;;;;19.17;10.80;;;4.90;99.90;;;;;;5030439;28;260083;-68
2021/12/08 05:27:08;;;;;;;18.88;10.95;;;4.90;99.90;;;;;;5037939;28;20053;-69
2021/12/08 05:29:53;;;;;;;19.65;11.43;;;4.90;99.90;;;;;;5026817;28;154129;-68
2021/12/08 05:32:20;;;;;;;20.25;10.95;;;4.90;99.90;;;;;;5043060;28;20402;-69
2021/12/08 05:34:47;;;;;;;20.23;10.25;;;4.90;99.90;;;;;;5035809;28;216111;-69
2021/12/08 05:37:18;;;;;;;18.95;11.15;;;5.00;99.90;;;;;;5041672;28;20057;-69
2021/12/08 05:39:44;;;;;;;21.38;10.80;;;5.00;99.90;;;;;;5031322;28;272111;-69
2021/12/08 05:42:15;;;;;;;17.25;10.30;;;5.00;99.90;;;;;;5035272;28;20048;-69
2021/12/08 05:44:41;;;;;;;21.70;10.75;;;5.00;99.90;;;;;;5029928;28;274152;-69
2021/12/08 05:47:15;;;;;;;19.13;10.30;;;5.00;99.90;;;;;;5037165;28;20049;-69
2021/12/08 05:49:42;;;;;;;17.45;11.00;;;5.10;99.90;;;;;;5029984;28;261829;-69
2021/12/08 05:52:09;;;;;;;16.42;10.15;;;5.20;99.90;;;;;;5042298;28;20052;-69
2021/12/08 05:54:38;;;;;;;16.98;9.88;;;5.20;99.90;;;;;;5033702;28;269794;-69
2021/12/08 05:57:12;;;;;;;19.38;9.20;;;5.30;99.90;;;;;;5047554;28;20498;-69
2021/12/08 05:59:39;;;;;;;20.88;9.65;;;5.20;99.90;;;;;;5026765;28;242133;-68
2021/12/08 06:02:10;;;;;;;14.93;9.75;;;5.30;99.90;;;;;;5039387;28;20507;-69
2021/12/08 06:04:37;;;;;;;;;;;5.30;99.90;;;;;;5019983;28;261384;-69
2021/12/08 06:07:06;;;;;;;16.67;8.90;;;5.30;99.90;;;;;;5046347;28;19916;-69
2021/12/08 06:09:34;;;;;;;18.05;9.38;;;5.20;99.90;;;;;;5028005;28;65189;-68
2021/12/08 06:12:03;;;;;;;16.40;9.15;;;5.20;99.90;;;;;;5044042;28;20625;-69
2021/12/08 06:14:32;;;;;;;16.27;9.60;;;5.10;99.90;;;;;;5022129;28;268118;-70
2021/12/08 06:17:09;;;;;;;18.25;8.82;;;5.10;99.90;;;;;;5033899;28;20052;-69
2021/12/08 06:19:36;;;;;;;17.83;9.40;;;5.00;99.90;;;;;;5032105;28;275202;-69
2021/12/08 06:22:05;;;;;;;18.52;9.07;;;5.00;99.90;;;;;;5043977;28;20411;-69
2021/12/08 06:24:31;;;;;;;18.95;9.45;;;4.90;99.90;;;;;;5032441;28;259082;-69
2021/12/08 06:26:58;;;;;;;15.63;9.02;;;4.80;99.90;;;;;;5042255;28;20064;-69
2021/12/08 06:29:27;;;;;;;18.63;9.82;;;4.80;99.90;;;;;;5028844;28;269091;-68
2021/12/08 06:31:56;;;;;;;17.70;8.90;;;4.80;99.90;;;;;;5046597;28;20068;-68
2021/12/08 06:34:24;;;;;;;16.38;8.77;;;4.80;99.90;;;;;;5028967;28;251347;-69
2021/12/08 06:36:59;;;;;;;17.98;8.75;;;4.70;99.90;;;;;;5046036;28;20052;-69
2021/12/08 06:39:38;;;;;;;19.75;9.05;;;4.80;99.90;;;;;;5031765;28;266175;-68
2021/12/08 06:42:17;;;;;;;19.08;9.07;;;4.70;99.90;;;;;;5043425;28;20065;-69
2021/12/08 06:44:51;;;;;;;18.45;9.32;;;4.60;99.90;;;;;;5032665;28;256670;-68
2021/12/08 06:47:22;;;;;;;16.33;8.70;;;4.60;99.90;;;;;;5040165;28;20061;-68
2021/12/08 06:49:53;;;;;;;20.02;8.68;;;4.60;99.90;;;;;;5022246;28;196149;-69
2021/12/08 06:52:23;;;;;;;16.37;8.33;;;4.60;99.90;;;;;;5030712;28;20053;-69
2021/12/08 06:54:55;;;;;;;17.60;8.27;;;4.60;99.90;;;;;;5013402;28;235395;-70
2021/12/08 06:57:32;;;;;;;15.32;7.72;;;4.60;99.90;;;;;;5024629;28;20049;-69
2021/12/08 07:00:05;;;;;;;17.73;8.65;;;4.60;99.90;;;;;;5024923;28;269336;-70
2021/12/08 07:05:52;;;;;;;18.08;8.05;;;4.70;99.90;;;;;;5014440;28;257504;-69
2021/12/08 07:08:15;;;;;;;17.83;7.25;;;4.60;99.90;;;;;;5043532;22;251002;-68
2021/12/08 07:10:45;;;;;;;19.33;7.70;;;4.70;99.90;;;;;;5079411;28;20382;-69
2021/12/08 07:13:18;;;;;;;13.73;7.33;;;4.70;99.90;;;;;;5062821;28;20513;-69
2021/12/08 07:15:50;;;;;;;17.77;6.70;;;4.70;99.90;;;;;;5052953;28;20444;-69
2021/12/08 07:18:25;;;;;;;15.60;6.70;;;4.70;99.90;;;;;;5031568;28;254443;-69
2021/12/08 07:20:56;;;;;;;14.65;6.40;;;4.70;99.90;;;;;;5037915;28;20057;-69
2021/12/08 07:23:36;;;;;;;13.87;6.17;;;4.70;99.90;;;;;;5051122;28;253290;-69
2021/12/08 07:26:10;;;;;;;15.65;6.03;;;4.70;99.90;;;;;;5044469;28;20049;-69
2021/12/08 07:28:40;;;;;;;12.20;5.00;;;4.70;99.90;;;;;;5051756;28;267378;-68
2021/12/08 07:31:17;;;;;;;15.60;5.13;;;4.80;99.90;;;;;;5044234;28;20072;-69
2021/12/08 07:33:43;;;;;;;12.07;4.60;;;4.80;99.90;;;;;;5052029;28;172301;-69
2021/12/08 07:36:14;;;;;;;13.23;4.78;;;4.80;99.90;;;;;;5034012;28;20049;-69
2021/12/08 07:38:43;;;;;;;15.82;4.93;;;4.80;99.90;;;;;;5022249;28;175036;-69
2021/12/08 07:41:48;;;;;;;17.40;4.55;;;4.80;99.90;;;;;;5044685;28;20049;-69
2021/12/08 07:44:17;;;;;;;11.07;4.32;;;4.90;99.90;;;;;;4987269;28;197886;-69
2021/12/08 07:46:51;;;;;;;12.93;4.25;;;4.90;99.90;;;;;;5010814;28;20095;-69
2021/12/08 07:49:30;;;;;;;14.52;4.20;;;4.90;99.90;;;;;;5009334;28;148909;-69
2021/12/08 07:52:23;;;;;;;14.02;3.90;;;4.90;99.90;;;;;;5035711;28;20050;-70
2021/12/08 07:54:50;;;;;;;14.25;4.00;;;4.90;99.90;;;;;;5015393;28;222380;-69
2021/12/08 07:57:22;;;;;;;16.10;4.30;;;4.90;99.90;;;;;;5024960;28;20080;-69
2021/12/08 07:59:52;;;;;;;11.70;4.22;;;4.80;99.90;;;;;;5020826;28;44997;-69
2021/12/08 08:02:18;;;;;;;13.88;4.00;;;4.80;99.90;;;;;;5008319;28;20054;-70
2021/12/08 08:04:48;;;;;;;15.35;4.47;;;4.80;99.90;;;;;;4998362;28;99453;-70
2021/12/08 08:07:16;;;;;;;13.02;4.47;;;4.80;99.90;;;;;;5021365;28;20054;-69
2021/12/08 08:09:45;;;;;;;12.68;4.20;;;4.80;99.90;;;;;;5013417;28;24494;-69
2021/12/08 08:12:16;;;;;;;12.48;4.30;;;4.90;99.90;;;;;;5006730;28;20061;-70
2021/12/08 08:14:44;;;;;;;;;;;4.90;99.90;;;;;;5010068;28;168636;-69
2021/12/08 08:17:14;;;;;;;12.60;3.80;;;4.90;99.90;;;;;;5030578;28;19921;-71
2021/12/08 08:19:45;;;;;;;13.23;3.47;;;4.90;99.90;;;;;;5054867;28;214384;-70
2021/12/08 08:22:17;;;;;;;12.18;3.42;;;4.90;99.90;;;;;;5038156;28;20053;-71
2021/12/08 08:24:43;;;;;;;14.40;3.80;;;4.90;99.90;;;;;;5045434;28;137094;-70
2021/12/08 08:27:11;;;;;;;11.00;3.38;;;4.90;99.90;;;;;;5045272;28;20560;-70
2021/12/08 08:29:38;;;;;;;13.18;3.35;;;5.00;99.90;;;;;;5039260;28;87234;-70
2021/12/08 08:32:10;;;;;;;12.48;3.15;;;5.00;99.90;;;;;;5044405;28;20053;-69
2021/12/08 08:34:40;;;;;;;12.55;3.53;;;5.00;99.90;;;;;;5042281;28;266005;-69
2021/12/08 08:37:12;;;;;;;17.07;3.67;;;4.90;99.90;;;;;;5041748;28;20053;-70
2021/12/08 08:39:43;;;;;;;11.38;3.40;;;5.00;99.90;;;;;;5057023;28;118153;-70
2021/12/08 08:42:20;;;;;;;16.60;3.45;;;5.00;99.90;;;;;;5039768;28;20398;-70
2021/12/08 08:44:54;;;;;;;13.82;3.08;;;5.00;99.90;;;;;;5031651;28;74449;-70
2021/12/08 08:47:31;;;;;;;10.13;2.45;;;5.00;99.90;;;;;;5040744;28;20049;-70
2021/12/08 08:49:58;;;;;;;15.35;2.88;;;5.00;99.90;;;;;;5046742;28;262909;-70
2021/12/08 08:52:34;;;;;;;12.65;2.78;;;5.10;99.90;;;;;;5042502;28;20506;-70
2021/12/08 08:55:10;;;;;;;14.13;3.28;;;5.10;99.90;;;;;;5057219;28;142214;-70
2021/12/08 08:57:39;;;;;;;15.25;3.13;;;5.20;99.90;;;;;;5038594;28;20056;-70
2021/12/08 09:00:37;;;;;;;12.43;2.72;;;5.30;99.90;;;;;;5047935;28;243004;-69
2021/12/08 09:03:10;;;;;;;16.50;2.90;;;5.40;99.90;;;;;;5036115;28;20053;-70
2021/12/08 09:05:43;;;;;;;12.55;2.60;;;5.40;99.90;;;;;;5043141;28;128165;-70
2021/12/08 09:08:12;;;;;;;14.40;2.97;;;5.40;99.90;;;;;;5066391;28;20042;-70
2021/12/08 09:11:18;;;;;;;13.02;2.70;;;5.40;99.90;;;;;;5055631;28;144558;-70
2021/12/08 09:13:50;;;;;;;16.60;2.90;;;5.40;99.90;;;;;;5028818;28;264414;-70
2021/12/08 09:16:24;;;;;;;15.52;2.90;;;5.40;99.90;;;;;;5035562;28;20414;-70
2021/12/08 09:19:04;;;;;;;11.00;2.25;;;5.40;99.90;;;;;;5029370;28;263824;-70
2021/12/08 09:22:03;;;;;;;15.15;2.85;;;5.40;99.90;;;;;;5045031;28;20064;-69
2021/12/08 09:24:39;;;;;;;16.67;3.00;;;5.40;99.90;;;;;;5056343;28;162399;-70
2021/12/08 09:27:09;;;;;;;14.95;2.55;;;5.40;99.90;;;;;;5069441;28;20076;-70
2021/12/08 09:29:44;;;;;;;13.65;2.78;;;5.40;99.90;;;;;;5044962;28;85316;-70
2021/12/08 09:32:20;;;;;;;11.82;2.28;;;5.50;99.90;;;;;;5056572;28;20513;-71
2021/12/08 09:34:57;;;;;;;11.85;2.30;;;5.40;99.90;;;;;;5055836;28;101769;-70
2021/12/08 09:37:27;;;;;;;9.45;2.10;;;5.40;99.90;;;;;;5031843;28;20048;-70
2021/12/08 09:40:04;;;;;;;13.93;2.80;;;5.40;99.90;;;;;;5042000;28;20051;-70
2021/12/08 09:42:39;;;;;;;11.77;2.65;;;5.40;99.90;;;;;;5038124;28;20064;-71
2021/12/08 09:45:11;;;;;;;13.45;2.53;;;5.40;99.90;;;;;;5039143;28;148266;-71
2021/12/08 09:47:37;;;;;;;16.20;3.00;;;5.40;99.90;;;;;;5037211;28;20045;-71
2021/12/08 09:50:07;;;;;;;12.25;2.63;;;5.50;99.90;;;;;;5049353;28;264170;-71
2021/12/08 09:52:34;;;;;;;16.02;2.88;;;5.50;99.90;;;;;;5038717;28;20490;-71
2021/12/08 09:55:01;;;;;;;15.15;2.67;;;5.50;99.90;;;;;;5045302;28;255858;-70
2021/12/08 09:57:29;;;;;;;12.70;2.30;;;5.50;99.90;;;;;;5038698;28;20239;-70
2021/12/08 09:59:56;;;;;;;11.95;2.67;;;5.50;99.90;;;;;;5043176;28;276450;-70
2021/12/08 10:02:29;;;;;;;13.02;2.80;;;5.60;99.90;;;;;;5037906;28;20054;-70
2021/12/08 10:04:57;;;;;;;15.00;2.63;;;5.60;99.90;;;;;;5033232;28;120414;-70
2021/12/08 10:07:25;;;;;;;12.35;2.40;;;5.60;99.90;;;;;;5048265;28;20049;-70
2021/12/08 10:09:52;;;;;;;15.15;2.70;;;5.70;99.90;;;;;;5042261;28;92383;-70
2021/12/08 10:12:18;;;;;;;14.65;2.50;;;5.80;99.90;;;;;;5045271;28;20068;-70
2021/12/08 10:14:46;;;;;;;13.95;2.50;;;5.80;99.90;;;;;;5045385;28;257703;-71
2021/12/08 10:17:14;;;;;;;14.57;2.58;;;5.80;99.90;;;;;;5024051;28;20053;-70
2021/12/08 10:19:42;;;;;;;16.75;2.75;;;5.80;99.90;;;;;;5039089;28;197184;-70
2021/12/08 10:22:22;;;;;;;12.60;2.80;;;5.80;99.90;;;;;;5045269;28;20068;-70
2021/12/08 10:25:16;;;;;;;13.85;3.03;;;5.80;99.90;;;;;;5060916;28;123395;-71
2021/12/08 10:28:09;;;;;;;14.15;2.60;;;5.80;99.90;;;;;;5039474;28;20053;-70
2021/12/08 10:30:53;;;;;;;16.00;3.13;;;5.90;99.90;;;;;;5056203;28;157543;-70
2021/12/08 10:33:36;;;;;;;15.43;2.35;;;5.90;99.90;;;;;;5021020;28;261950;-70
2021/12/08 10:36:18;;;;;;;16.98;2.92;;;6.00;99.90;;;;;;5052652;28;20053;-70
2021/12/08 10:38:44;;;;;;;12.80;3.45;;;6.00;99.90;;;;;;5063585;28;20049;-70
2021/12/08 10:41:11;;;;;;;13.70;3.05;;;6.10;99.90;;;;;;5071145;28;20073;-70
2021/12/08 10:43:37;;;;;;;13.93;2.97;;;6.20;99.90;;;;;;5024234;28;272088;-71
2021/12/08 10:46:10;;;;;;;17.50;3.25;;;6.20;99.90;;;;;;5068091;28;20079;-70
2021/12/08 10:48:43;;;;;;;14.40;3.15;;;6.20;99.90;;;;;;5050087;28;272227;-69
2021/12/08 10:54:35;;;;;;;12.48;2.60;;;6.20;99.90;;;;;;5066634;28;38776;-69
2021/12/08 10:57:19;;;;;;;14.60;2.90;;;6.20;99.90;;;;;;5038192;28;20060;-69
2021/12/08 10:59:55;;;;;;;14.45;2.60;;;6.20;99.90;;;;;;5056466;28;112105;-69
2021/12/08 11:02:41;;;;;;;12.65;2.55;;;6.20;99.90;;;;;;5068445;28;20053;-70
2021/12/08 11:05:37;;;;;;;14.43;2.70;;;6.30;99.90;;;;;;5027857;28;239316;-70
2021/12/08 11:08:05;;;;;;;15.05;2.97;;;6.30;99.90;;;;;;5038666;28;20402;-70
2021/12/08 11:10:33;;;;;;;16.52;2.97;;;6.30;99.90;;;;;;5060771;28;176437;-71
2021/12/08 11:13:00;;;;;;;13.40;2.95;;;6.40;99.90;;;;;;5041757;28;20072;-71
2021/12/08 11:15:28;;;;;;;13.30;2.78;;;6.40;99.90;;;;;;5052890;28;242072;-71
2021/12/08 11:18:19;;;;;;;13.40;3.15;;;6.40;99.90;;;;;;5040171;28;20045;-71
2021/12/08 11:21:13;;;;;;;14.98;2.92;;;6.50;99.90;;;;;;4983693;28;20091;-71
2021/12/08 11:23:41;;;;;;;15.02;2.90;;;6.50;99.90;;;;;;4993268;28;42740;-72
2021/12/08 11:26:25;;;;;;;14.02;3.00;;;6.50;99.90;;;;;;5006848;28;20057;-70
2021/12/08 11:29:06;;;;;;;15.40;2.92;;;6.50;99.90;;;;;;4991112;28;38861;-71
2021/12/08 11:31:44;;;;;;;14.52;2.80;;;6.50;99.90;;;;;;5004643;28;20577;-71
2021/12/08 11:34:19;;;;;;;14.57;2.72;;;6.50;99.90;;;;;;4980172;28;147256;-71
2021/12/08 11:36:51;;;;;;;12.45;2.75;;;6.50;99.90;;;;;;4998648;28;20053;-71
2021/12/08 11:39:26;;;;;;;14.02;2.95;;;6.50;99.90;;;;;;4993020;28;30319;-71
2021/12/08 11:41:55;;;;;;;14.48;2.65;;;6.50;99.90;;;;;;4985976;28;20450;-70
2021/12/08 11:44:25;;;;;;;13.80;2.65;;;6.50;99.90;;;;;;4979127;28;22792;-71
2021/12/08 11:46:54;;;;;;;14.32;2.85;;;6.50;99.90;;;;;;5001052;28;20045;-71
2021/12/08 11:49:22;;;;;;;12.02;2.72;;;6.50;99.90;;;;;;4992339;28;190248;-71
2021/12/08 11:52:13;;;;;;;11.30;2.80;;;6.40;99.90;;;;;;5004853;28;20652;-71
2021/12/08 11:54:41;;;;;;;15.80;2.80;;;6.40;99.90;;;;;;4999571;28;20081;-71
2021/12/08 11:57:12;;;;;;;12.95;3.08;;;6.40;99.90;;;;;;5005222;28;20057;-71
2021/12/08 11:59:47;;;;;;;12.38;2.88;;;6.40;99.90;;;;;;5040367;28;277502;-71
2021/12/08 12:02:15;;;;;;;10.27;2.80;;;6.40;99.90;;;;;;5046848;28;20539;-71
2021/12/08 12:04:44;;;;;;;12.68;2.67;;;6.30;99.90;;;;;;5028943;28;254730;-76
2021/12/08 12:07:12;;;;;;;13.60;3.10;;;6.30;99.90;;;;;;5048162;28;20514;-71
2021/12/08 12:09:40;;;;;;;11.05;2.55;;;6.30;99.90;;;;;;5058669;28;106947;-71
2021/12/08 12:12:07;;;;;;;13.65;3.05;;;6.20;99.90;;;;;;5043817;28;20053;-72
2021/12/08 12:14:34;;;;;;;12.30;3.00;;;6.20;99.90;;;;;;5059624;28;141581;-72
2021/12/08 12:17:01;;;;;;;15.73;3.63;;;6.20;99.90;;;;;;5041598;28;20049;-71
2021/12/08 12:19:33;;;;;;;15.38;3.17;;;6.20;99.90;;;;;;5054770;28;203776;-71
2021/12/08 12:22:31;;;;;;;20.70;3.33;;;6.20;99.90;;;;;;5046181;28;20088;-71
2021/12/08 12:25:35;;;;;;;12.80;3.30;;;6.20;99.90;;;;;;5049677;28;256756;-71
2021/12/08 12:28:22;;;;;;;14.15;3.20;;;6.20;99.90;;;;;;5041387;28;20060;-71
2021/12/08 12:31:06;;;;;;;10.88;3.05;;;6.20;99.90;;;;;;5029043;28;20565;-71
2021/12/08 12:33:43;;;;;;;14.55;3.20;;;6.20;99.90;;;;;;5027374;28;253397;-71
2021/12/08 12:36:25;;;;;;;14.18;3.20;;;6.20;99.90;;;;;;5048103;28;20617;-71
2021/12/08 12:38:51;;;;;;;11.18;3.47;;;6.10;99.90;;;;;;5055379;28;216500;-71
2021/12/08 12:41:31;;;;;;;14.80;3.88;;;6.20;99.90;;;;;;5033529;28;20061;-71
2021/12/08 12:44:20;;;;;;;15.52;3.53;;;6.20;99.90;;;;;;5030251;28;136295;-71
2021/12/08 12:47:14;;;;;;;15.07;3.67;;;6.20;99.90;;;;;;5061047;28;20072;-71
2021/12/08 12:49:44;;;;;;;15.82;3.80;;;6.10;99.90;;;;;;5037505;28;41168;-72
2021/12/08 12:52:13;;;;;;;12.15;3.13;;;6.20;99.90;;;;;;5037976;28;20415;-71
2021/12/08 12:54:41;;;;;;;15.20;3.28;;;6.10;99.90;;;;;;5032624;28;221049;-71
2021/12/08 12:57:07;;;;;;;14.32;3.30;;;6.20;99.90;;;;;;5042725;28;20053;-71
2021/12/08 12:59:50;;;;;;;13.73;3.30;;;6.10;99.90;;;;;;5057446;28;82988;-71
2021/12/08 13:02:34;;;;;;;12.48;3.45;;;6.20;99.90;;;;;;5036458;28;20853;-71
2021/12/08 13:05:08;;;;;;;12.48;3.42;;;6.20;99.90;;;;;;5024154;28;251415;-71
2021/12/08 13:07:42;;;;;;;12.90;3.03;;;6.20;99.90;;;;;;5049029;22;20075;-68
2021/12/08 13:10:14;;;;;;;13.27;3.10;;;6.20;99.90;;;;;;5011997;28;226942;-68
2021/12/08 13:12:42;;;;;;;12.82;2.75;;;6.20;99.90;;;;;;5025859;28;20053;-66
2021/12/08 13:15:17;;;;;;;12.93;3.15;;;6.20;99.90;;;;;;5021360;28;272947;-67
2021/12/08 13:18:06;;;;;;;13.38;2.80;;;6.20;99.90;;;;;;5015076;28;20054;-68
2021/12/08 13:20:41;;;;;;;11.93;3.00;;;6.10;99.90;;;;;;4975765;28;126962;-68
2021/12/08 13:23:20;;;;;;;12.63;2.85;;;6.20;99.90;;;;;;5002906;28;20566;-67
2021/12/08 13:28:22;;;;;;;13.75;2.70;;;6.10;99.90;;;;;;4982246;28;281553;-67
2021/12/08 13:31:15;;;;;;;10.52;3.10;;;6.10;99.90;;;;;;5019252;28;20050;-67
2021/12/08 13:33:52;;;;;;;12.40;3.28;;;6.10;99.90;;;;;;4983838;28;265494;-67
2021/12/08 13:36:21;;;;;;;11.35;2.85;;;6.10;99.90;;;;;;4989810;28;20042;-68
2021/12/08 13:38:53;;;;;;;12.65;3.25;;;6.10;99.90;;;;;;4989831;28;258553;-68
2021/12/08 13:41:21;;;;;;;12.65;2.70;;;6.10;99.90;;;;;;5012137;28;20049;-67
2021/12/08 13:43:51;;;;;;;12.23;2.70;;;6.10;99.90;;;;;;4990995;28;264250;-68
2021/12/08 13:46:36;;;;;;;11.52;2.67;;;6.20;99.90;;;;;;5009486;28;20058;-67
2021/12/08 13:49:19;;;;;;;11.65;2.60;;;6.20;99.90;;;;;;4996390;28;239246;-68
2021/12/08 13:52:07;;;;;;;11.00;2.50;;;6.20;99.90;;;;;;5027474;28;20124;-67
2021/12/08 13:54:54;;;;;;;13.45;2.90;;;6.30;99.90;;;;;;5012120;28;48367;-67
2021/12/08 13:57:42;;;;;;;12.93;2.70;;;6.50;99.90;;;;;;5025238;28;20468;-68
2021/12/08 14:00:17;;;;;;;12.05;3.03;;;6.40;99.90;;;;;;5023184;28;25781;-68
2021/12/08 14:02:44;;;;;;;15.15;2.72;;;6.40;99.90;;;;;;5021925;28;20379;-67
2021/12/08 14:05:15;;;;;;;13.63;2.83;;;6.40;99.90;;;;;;5000930;28;271878;-67
2021/12/08 14:07:48;;;;;;;12.50;2.95;;;6.40;99.90;;;;;;5025094;28;20041;-67